Sikinos — 9HA2865 — position and weather

sailwx.info

Track history (hours):
 
Tides and Currents Weather Stations Pressure Air Temp Water Temp Dewpoint Dewpoint Depression Visibility Wind Speed Wind Dir Waves Ship Positions

Sikinos

Last reported at 2016-Sep-27 00:32 UTC. Time now 2016-Sep-27 06:58 UTC.
Position N 51°02' E 002°16'.

Length 90 m; draft 4.9 m.

Type: Ship (hazmat cat A). MMSI: 256462000.

Date/timePositionNaut miles runAvg speedWind from/ knotsBaromVisibWave heightAir tempDewpointWater temp
2016-Sep-27 00:32N 51°02' E 002°16'2 0.5
2016-Sep-26 20:24N 51°03' E 002°19'0 0.0
2016-Sep-26 19:27N 51°03' E 002°19'0 0.0
2016-Sep-26 15:30N 51°03' E 002°19'0 0.0
2016-Sep-26 13:33N 51°03' E 002°19'1 0.3
2016-Sep-26 11:33N 51°03' E 002°20'20 6.8
2016-Sep-26 08:33N 51°02' E 001°47'54 8.9
2016-Sep-26 02:33N 51°22' E 003°07'4 3.6
2016-Sep-26 01:31N 51°20' E 003°12'0 0.0
2016-Sep-26 00:31N 51°20' E 003°12'0 0.0
2016-Sep-25 21:31N 51°20' E 003°12'0 0.0
2016-Sep-25 17:28N 51°20' E 003°12'0 0.0
2016-Sep-25 16:31N 51°20' E 003°12'0 0.0
2016-Sep-25 15:28N 51°20' E 003°12'0 0.0
2016-Sep-25 14:31N 51°20' E 003°12'0 0.0
2016-Sep-25 12:31N 51°20' E 003°12'0 0.0
2016-Sep-25 11:31N 51°20' E 003°12'0 0.0
2016-Sep-25 10:31N 51°20' E 003°12'0 0.0
2016-Sep-25 09:31N 51°20' E 003°12'0 0.0
2016-Sep-25 07:31N 51°20' E 003°12'0 0.0
2016-Sep-25 04:31N 51°20' E 003°12'0 0.0
2016-Sep-25 00:31N 51°20' E 003°12'0 0.0
2016-Sep-24 22:31N 51°20' E 003°12'0 0.0
2016-Sep-24 21:31N 51°20' E 003°12'0 0.0
2016-Sep-24 19:31N 51°20' E 003°12'0 0.0
2016-Sep-24 18:28N 51°20' E 003°12'0 0.0
2016-Sep-24 17:31N 51°20' E 003°12'0 0.0
2016-Sep-24 16:31N 51°20' E 003°12'0 0.0
2016-Sep-24 14:31N 51°20' E 003°12'0 0.0
2016-Sep-24 12:31N 51°20' E 003°12'0 0.0
2016-Sep-24 10:31N 51°20' E 003°12'0 0.0
2016-Sep-24 09:31N 51°20' E 003°12'0 0.0
2016-Sep-24 03:31N 51°20' E 003°12'0 0.0
2016-Sep-24 02:31N 51°20' E 003°12'0 0.0
2016-Sep-24 01:31N 51°20' E 003°12'0 0.0
2016-Sep-24 00:31N 51°20' E 003°12'0 0.0
2016-Sep-23 19:33N 51°20' E 003°12'0 0.0
2016-Sep-23 17:33N 51°20' E 003°12'0 0.0
2016-Sep-23 16:31N 51°20' E 003°12'0 0.0
2016-Sep-23 15:34N 51°20' E 003°12'0 0.0
2016-Sep-23 13:33N 51°20' E 003°12'0 0.0
2016-Sep-23 09:31N 51°20' E 003°12'0 0.0
2016-Sep-23 06:34N 51°20' E 003°12'0 0.0
2016-Sep-23 04:34N 51°20' E 003°12'0 0.0
2016-Sep-23 03:33N 51°20' E 003°12'0 0.0
2016-Sep-23 02:34N 51°20' E 003°12'0 0.0
2016-Sep-23 01:33N 51°20' E 003°12'0 0.0
2016-Sep-23 00:33N 51°20' E 003°12'0 0.0
2016-Sep-22 23:33N 51°20' E 003°12'0 0.0
2016-Sep-22 20:33N 51°20' E 003°12'173 8.6
2016-Sep-22 00:33N 53°43' E 005°51'1211.8
2016-Sep-21 23:33N 53°47' E 006°10'1211.5
2016-Sep-21 22:33N 53°50' E 006°28'3812.8
2016-Sep-21 19:33N 53°59' E 007°32'3912.9
2016-Sep-21 16:33N 53°38' E 008°27'17 1.3
2016-Sep-21 03:33N 53°21' E 008°30'1 0.8
2016-Sep-21 02:25N 53°20' E 008°29'0 0.0
2016-Sep-20 14:33N 53°20' E 008°29'8 7.9
2016-Sep-20 13:33N 53°28' E 008°30'3411.2
2016-Sep-20 10:33N 53°52' E 007°50'2010.1
2016-Sep-20 08:33N 53°52' E 007°16'1212.2
2016-Sep-20 07:33N 53°50' E 006°56'1111.4
2016-Sep-20 06:34N 53°47' E 006°37'4410.9
2016-Sep-20 02:34N 53°34' E 005°27'7610.9
2016-Sep-19 19:33N 52°40' E 003°58'7813.0
2016-Sep-19 13:33N 51°36' E 002°44'1212.5
2016-Sep-19 12:33N 51°24' E 002°43'1010.0
2016-Sep-19 11:33N 51°22' E 002°59'8 4.1
2016-Sep-19 09:31N 51°20' E 003°12'0 0.0
2016-Sep-19 07:31N 51°20' E 003°12'0 0.0
2016-Sep-19 06:31N 51°20' E 003°12'0 0.0
2016-Sep-19 03:31N 51°20' E 003°12'0 0.0
2016-Sep-19 02:31N 51°20' E 003°12'0 0.0
2016-Sep-19 00:31N 51°20' E 003°12'0 0.0
2016-Sep-18 19:31N 51°20' E 003°12'0 0.0
2016-Sep-18 15:31N 51°20' E 003°12'0 0.0
2016-Sep-18 14:31N 51°20' E 003°12'0 0.0
2016-Sep-18 10:31N 51°20' E 003°12'0 0.0
2016-Sep-18 09:31N 51°20' E 003°12'54 7.7
2016-Sep-18 02:33N 51°02' E 001°51'1010.1
2016-Sep-18 01:33N 51°03' E 002°07'8 8.4
2016-Sep-18 00:34N 51°03' E 002°20'1 0.6
2016-Sep-17 22:33N 51°03' E 002°19'0 0.0
2016-Sep-17 21:33N 51°03' E 002°19'0 0.0
2016-Sep-17 20:33N 51°03' E 002°19'0 0.0
2016-Sep-17 19:15N 51°03' E 002°19'0 0.1
2016-Sep-17 13:32N 51°03' E 002°19'0 0.0
2016-Sep-17 12:32N 51°03' E 002°19'0 0.0
2016-Sep-17 10:32N 51°03' E 002°19'0 0.0
2016-Sep-17 09:30N 51°03' E 002°19'0 0.0
2016-Sep-17 08:32N 51°03' E 002°19'0 0.0
2016-Sep-17 07:32N 51°03' E 002°19'0 0.0
2016-Sep-17 05:29N 51°03' E 002°19'0 0.0
2016-Sep-17 04:32N 51°03' E 002°19'  
Track history (hours):
 
Tides and Currents Weather Stations Pressure Air Temp Water Temp Dewpoint Dewpoint Depression Visibility Wind Speed Wind Dir Waves Ship Positions

Sikinos

Last reported at 2016-Sep-27 00:32 UTC. Time now 2016-Sep-27 06:58 UTC.
Position N 51°02' E 002°16'.

Length 90 m; draft 4.9 m.

Type: Ship (hazmat cat A). MMSI: 256462000.

Date/timePositionNaut miles runAvg speedWind from/ knotsBaromVisibWave heightAir tempDewpointWater temp
2016-Sep-27 00:32N 51°02' E 002°16'2 0.5
2016-Sep-26 20:24N 51°03' E 002°19'0 0.0
2016-Sep-26 19:27N 51°03' E 002°19'0 0.0
2016-Sep-26 15:30N 51°03' E 002°19'0 0.0
2016-Sep-26 13:33N 51°03' E 002°19'1 0.3
2016-Sep-26 11:33N 51°03' E 002°20'20 6.8
2016-Sep-26 08:33N 51°02' E 001°47'54 8.9
2016-Sep-26 02:33N 51°22' E 003°07'4 3.6
2016-Sep-26 01:31N 51°20' E 003°12'0 0.0
2016-Sep-26 00:31N 51°20' E 003°12'0 0.0
2016-Sep-25 21:31N 51°20' E 003°12'0 0.0
2016-Sep-25 17:28N 51°20' E 003°12'0 0.0
2016-Sep-25 16:31N 51°20' E 003°12'0 0.0
2016-Sep-25 15:28N 51°20' E 003°12'0 0.0
2016-Sep-25 14:31N 51°20' E 003°12'0 0.0
2016-Sep-25 12:31N 51°20' E 003°12'0 0.0
2016-Sep-25 11:31N 51°20' E 003°12'0 0.0
2016-Sep-25 10:31N 51°20' E 003°12'0 0.0
2016-Sep-25 09:31N 51°20' E 003°12'0 0.0
2016-Sep-25 07:31N 51°20' E 003°12'0 0.0
2016-Sep-25 04:31N 51°20' E 003°12'0 0.0
2016-Sep-25 00:31N 51°20' E 003°12'0 0.0
2016-Sep-24 22:31N 51°20' E 003°12'0 0.0
2016-Sep-24 21:31N 51°20' E 003°12'0 0.0
2016-Sep-24 19:31N 51°20' E 003°12'0 0.0
2016-Sep-24 18:28N 51°20' E 003°12'0 0.0
2016-Sep-24 17:31N 51°20' E 003°12'0 0.0
2016-Sep-24 16:31N 51°20' E 003°12'0 0.0
2016-Sep-24 14:31N 51°20' E 003°12'0 0.0
2016-Sep-24 12:31N 51°20' E 003°12'0 0.0
2016-Sep-24 10:31N 51°20' E 003°12'0 0.0
2016-Sep-24 09:31N 51°20' E 003°12'0 0.0
2016-Sep-24 03:31N 51°20' E 003°12'0 0.0
2016-Sep-24 02:31N 51°20' E 003°12'0 0.0
2016-Sep-24 01:31N 51°20' E 003°12'0 0.0
2016-Sep-24 00:31N 51°20' E 003°12'0 0.0
2016-Sep-23 19:33N 51°20' E 003°12'0 0.0
2016-Sep-23 17:33N 51°20' E 003°12'0 0.0
2016-Sep-23 16:31N 51°20' E 003°12'0 0.0
2016-Sep-23 15:34N 51°20' E 003°12'0 0.0
2016-Sep-23 13:33N 51°20' E 003°12'0 0.0
2016-Sep-23 09:31N 51°20' E 003°12'0 0.0
2016-Sep-23 06:34N 51°20' E 003°12'0 0.0
2016-Sep-23 04:34N 51°20' E 003°12'0 0.0
2016-Sep-23 03:33N 51°20' E 003°12'0 0.0
2016-Sep-23 02:34N 51°20' E 003°12'0 0.0
2016-Sep-23 01:33N 51°20' E 003°12'0 0.0
2016-Sep-23 00:33N 51°20' E 003°12'0 0.0
2016-Sep-22 23:33N 51°20' E 003°12'0 0.0
2016-Sep-22 20:33N 51°20' E 003°12'173 8.6
2016-Sep-22 00:33N 53°43' E 005°51'1211.8
2016-Sep-21 23:33N 53°47' E 006°10'1211.5
2016-Sep-21 22:33N 53°50' E 006°28'3812.8
2016-Sep-21 19:33N 53°59' E 007°32'3912.9
2016-Sep-21 16:33N 53°38' E 008°27'17 1.3
2016-Sep-21 03:33N 53°21' E 008°30'1 0.8
2016-Sep-21 02:25N 53°20' E 008°29'0 0.0
2016-Sep-20 14:33N 53°20' E 008°29'8 7.9
2016-Sep-20 13:33N 53°28' E 008°30'3411.2
2016-Sep-20 10:33N 53°52' E 007°50'2010.1
2016-Sep-20 08:33N 53°52' E 007°16'1212.2
2016-Sep-20 07:33N 53°50' E 006°56'1111.4
2016-Sep-20 06:34N 53°47' E 006°37'4410.9
2016-Sep-20 02:34N 53°34' E 005°27'7610.9
2016-Sep-19 19:33N 52°40' E 003°58'7813.0
2016-Sep-19 13:33N 51°36' E 002°44'1212.5
2016-Sep-19 12:33N 51°24' E 002°43'1010.0
2016-Sep-19 11:33N 51°22' E 002°59'8 4.1
2016-Sep-19 09:31N 51°20' E 003°12'0 0.0
2016-Sep-19 07:31N 51°20' E 003°12'0 0.0
2016-Sep-19 06:31N 51°20' E 003°12'0 0.0
2016-Sep-19 03:31N 51°20' E 003°12'0 0.0
2016-Sep-19 02:31N 51°20' E 003°12'0 0.0
2016-Sep-19 00:31N 51°20' E 003°12'0 0.0
2016-Sep-18 19:31N 51°20' E 003°12'0 0.0
2016-Sep-18 15:31N 51°20' E 003°12'0 0.0
2016-Sep-18 14:31N 51°20' E 003°12'0 0.0
2016-Sep-18 10:31N 51°20' E 003°12'0 0.0
2016-Sep-18 09:31N 51°20' E 003°12'54 7.7
2016-Sep-18 02:33N 51°02' E 001°51'1010.1
2016-Sep-18 01:33N 51°03' E 002°07'8 8.4
2016-Sep-18 00:34N 51°03' E 002°20'1 0.6
2016-Sep-17 22:33N 51°03' E 002°19'0 0.0
2016-Sep-17 21:33N 51°03' E 002°19'0 0.0
2016-Sep-17 20:33N 51°03' E 002°19'0 0.0
2016-Sep-17 19:15N 51°03' E 002°19'0 0.1
2016-Sep-17 13:32N 51°03' E 002°19'0 0.0
2016-Sep-17 12:32N 51°03' E 002°19'0 0.0
2016-Sep-17 10:32N 51°03' E 002°19'0 0.0
2016-Sep-17 09:30N 51°03' E 002°19'0 0.0
2016-Sep-17 08:32N 51°03' E 002°19'0 0.0
2016-Sep-17 07:32N 51°03' E 002°19'0 0.0
2016-Sep-17 05:29N 51°03' E 002°19'0 0.0
2016-Sep-17 04:32N 51°03' E 002°19'  

Dump ship's entire track history